sensor_id;sensor_type;location;lat;lon;timestamp;temperature;humidity
45315;SHT31;31051;51.540;5.852;2023-11-22T00:00:57;3.7;91.0
45315;SHT31;31051;51.540;5.852;2023-11-22T00:13:56;3.6;89.5
45315;SHT31;31051;51.540;5.852;2023-11-22T00:26:55;3.3;87.6
45315;SHT31;31051;51.540;5.852;2023-11-22T00:39:54;3.1;88.0
45315;SHT31;31051;51.540;5.852;2023-11-22T00:52:54;2.9;87.6
45315;SHT31;31051;51.540;5.852;2023-11-22T01:05:53;2.5;87.3
45315;SHT31;31051;51.540;5.852;2023-11-22T01:18:52;2.4;87.6
45315;SHT31;31051;51.540;5.852;2023-11-22T01:31:51;2.6;89.0
45315;SHT31;31051;51.540;5.852;2023-11-22T01:44:50;2.5;88.5
45315;SHT31;31051;51.540;5.852;2023-11-22T01:57:49;2.1;87.1
45315;SHT31;31051;51.540;5.852;2023-11-22T02:10:49;2.0;88.0
45315;SHT31;31051;51.540;5.852;2023-11-22T02:23:48;1.7;87.3
45315;SHT31;31051;51.540;5.852;2023-11-22T02:36:47;1.7;86.8
45315;SHT31;31051;51.540;5.852;2023-11-22T02:49:46;1.6;86.9
45315;SHT31;31051;51.540;5.852;2023-11-22T03:02:45;1.8;87.0
45315;SHT31;31051;51.540;5.852;2023-11-22T03:15:44;1.6;87.6
45315;SHT31;31051;51.540;5.852;2023-11-22T03:28:44;1.3;87.8
45315;SHT31;31051;51.540;5.852;2023-11-22T03:41:43;1.1;87.1
45315;SHT31;31051;51.540;5.852;2023-11-22T03:54:42;1.0;87.7
45315;SHT31;31051;51.540;5.852;2023-11-22T04:07:41;0.9;87.6
45315;SHT31;31051;51.540;5.852;2023-11-22T04:20:40;0.8;88.2
45315;SHT31;31051;51.540;5.852;2023-11-22T04:33:39;0.9;88.6
45315;SHT31;31051;51.540;5.852;2023-11-22T04:46:39;1.1;89.4
45315;SHT31;31051;51.540;5.852;2023-11-22T04:59:38;1.2;90.4
45315;SHT31;31051;51.540;5.852;2023-11-22T05:12:37;1.5;90.6
45315;SHT31;31051;51.540;5.852;2023-11-22T05:25:36;1.9;90.9
45315;SHT31;31051;51.540;5.852;2023-11-22T05:38:35;2.2;91.1
45315;SHT31;31051;51.540;5.852;2023-11-22T05:51:34;2.4;91.0
45315;SHT31;31051;51.540;5.852;2023-11-22T06:04:34;2.6;90.7
45315;SHT31;31051;51.540;5.852;2023-11-22T06:17:33;2.3;90.7
45315;SHT31;31051;51.540;5.852;2023-11-22T06:30:32;2.5;90.6
45315;SHT31;31051;51.540;5.852;2023-11-22T06:43:31;2.7;90.2
45315;SHT31;31051;51.540;5.852;2023-11-22T06:56:30;2.5;90.3
45315;SHT31;31051;51.540;5.852;2023-11-22T07:09:30;2.5;90.5
45315;SHT31;31051;51.540;5.852;2023-11-22T07:22:29;2.2;91.1
45315;SHT31;31051;51.540;5.852;2023-11-22T07:35:28;2.5;91.5
45315;SHT31;31051;51.540;5.852;2023-11-22T07:48:27;2.9;91.8
45315;SHT31;31051;51.540;5.852;2023-11-22T08:01:26;3.4;92.2
45315;SHT31;31051;51.540;5.852;2023-11-22T08:14:26;3.8;91.7
45315;SHT31;31051;51.540;5.852;2023-11-22T08:27:25;3.6;90.9
45315;SHT31;31051;51.540;5.852;2023-11-22T08:40:24;3.0;91.6
45315;SHT31;31051;51.540;5.852;2023-11-22T08:53:23;3.3;91.9
45315;SHT31;31051;51.540;5.852;2023-11-22T09:06:22;3.9;93.0
45315;SHT31;31051;51.540;5.852;2023-11-22T09:19:22;3.9;92.4
45315;SHT31;31051;51.540;5.852;2023-11-22T09:32:21;4.8;93.0
45315;SHT31;31051;51.540;5.852;2023-11-22T09:45:20;5.0;91.7
45315;SHT31;31051;51.540;5.852;2023-11-22T09:58:19;4.8;91.6
45315;SHT31;31051;51.540;5.852;2023-11-22T10:11:18;4.8;91.3
45315;SHT31;31051;51.540;5.852;2023-11-22T10:24:18;4.6;90.8
45315;SHT31;31051;51.540;5.852;2023-11-22T10:37:17;4.9;91.4
45315;SHT31;31051;51.540;5.852;2023-11-22T10:50:16;5.2;90.1
45315;SHT31;31051;51.540;5.852;2023-11-22T11:03:15;5.1;87.1
45315;SHT31;31051;51.540;5.852;2023-11-22T11:16:15;5.5;86.9
45315;SHT31;31051;51.540;5.852;2023-11-22T11:29:14;5.3;84.3
45315;SHT31;31051;51.540;5.852;2023-11-22T11:42:13;5.6;85.4
45315;SHT31;31051;51.540;5.852;2023-11-22T11:55:12;5.9;82.9
45315;SHT31;31051;51.540;5.852;2023-11-22T12:08:12;5.6;80.4
45315;SHT31;31051;51.540;5.852;2023-11-22T12:21:11;5.7;82.2
45315;SHT31;31051;51.540;5.852;2023-11-22T12:34:10;6.0;79.3
45315;SHT31;31051;51.540;5.852;2023-11-22T12:47:09;6.3;80.4
45315;SHT31;31051;51.540;5.852;2023-11-22T13:00:08;6.0;79.3
45315;SHT31;31051;51.540;5.852;2023-11-22T13:13:08;5.9;79.3
45315;SHT31;31051;51.540;5.852;2023-11-22T13:26:07;6.4;80.4
45315;SHT31;31051;51.540;5.852;2023-11-22T13:39:06;6.2;78.8
45315;SHT31;31051;51.540;5.852;2023-11-22T13:52:05;6.4;80.1
45315;SHT31;31051;51.540;5.852;2023-11-22T14:05:05;6.2;80.7
45315;SHT31;31051;51.540;5.852;2023-11-22T14:18:04;6.1;81.2
45315;SHT31;31051;51.540;5.852;2023-11-22T14:31:03;6.0;80.6
45315;SHT31;31051;51.540;5.852;2023-11-22T14:44:02;5.9;81.8
45315;SHT31;31051;51.540;5.852;2023-11-22T14:57:01;5.7;81.5
45315;SHT31;31051;51.540;5.852;2023-11-22T15:10:01;5.6;83.2
45315;SHT31;31051;51.540;5.852;2023-11-22T15:23:00;5.5;84.2
45315;SHT31;31051;51.540;5.852;2023-11-22T15:35:59;5.4;85.1
45315;SHT31;31051;51.540;5.852;2023-11-22T15:48:58;5.3;84.6
45315;SHT31;31051;51.540;5.852;2023-11-22T16:01:58;5.1;85.4
45315;SHT31;31051;51.540;5.852;2023-11-22T16:14:57;4.9;86.3
45315;SHT31;31051;51.540;5.852;2023-11-22T16:27:56;4.9;86.6
45315;SHT31;31051;51.540;5.852;2023-11-22T16:40:55;5.0;86.4
45315;SHT31;31051;51.540;5.852;2023-11-22T16:53:54;5.0;86.2
45315;SHT31;31051;51.540;5.852;2023-11-22T17:06:54;5.1;86.8
45315;SHT31;31051;51.540;5.852;2023-11-22T17:19:53;5.1;86.6
45315;SHT31;31051;51.540;5.852;2023-11-22T17:32:52;5.1;86.6
45315;SHT31;31051;51.540;5.852;2023-11-22T17:45:51;5.2;86.4
45315;SHT31;31051;51.540;5.852;2023-11-22T17:58:51;5.3;86.0
45315;SHT31;31051;51.540;5.852;2023-11-22T18:11:50;5.4;85.3
45315;SHT31;31051;51.540;5.852;2023-11-22T18:24:49;5.3;85.7
45315;SHT31;31051;51.540;5.852;2023-11-22T18:37:48;5.3;85.7
45315;SHT31;31051;51.540;5.852;2023-11-22T18:50:47;5.3;85.6
45315;SHT31;31051;51.540;5.852;2023-11-22T19:03:47;5.3;85.7
45315;SHT31;31051;51.540;5.852;2023-11-22T19:16:46;5.1;86.4
45315;SHT31;31051;51.540;5.852;2023-11-22T19:29:45;5.2;86.0
45315;SHT31;31051;51.540;5.852;2023-11-22T19:42:44;5.3;85.3
45315;SHT31;31051;51.540;5.852;2023-11-22T19:55:44;5.4;84.6
45315;SHT31;31051;51.540;5.852;2023-11-22T20:08:43;5.5;84.4
45315;SHT31;31051;51.540;5.852;2023-11-22T20:21:42;5.7;83.6
45315;SHT31;31051;51.540;5.852;2023-11-22T20:34:41;6.0;82.5
45315;SHT31;31051;51.540;5.852;2023-11-22T20:47:40;6.1;82.7
45315;SHT31;31051;51.540;5.852;2023-11-22T21:00:40;6.2;82.8
45315;SHT31;31051;51.540;5.852;2023-11-22T21:13:39;6.4;82.9
45315;SHT31;31051;51.540;5.852;2023-11-22T21:26:38;6.5;83.0
45315;SHT31;31051;51.540;5.852;2023-11-22T21:39:37;6.5;82.9
45315;SHT31;31051;51.540;5.852;2023-11-22T21:52:37;6.4;83.5
45315;SHT31;31051;51.540;5.852;2023-11-22T22:05:36;6.5;83.5
45315;SHT31;31051;51.540;5.852;2023-11-22T22:18:35;6.5;84.0
45315;SHT31;31051;51.540;5.852;2023-11-22T22:31:34;6.7;83.6
45315;SHT31;31051;51.540;5.852;2023-11-22T22:44:33;6.7;84.2
45315;SHT31;31051;51.540;5.852;2023-11-22T22:57:33;6.7;84.5
45315;SHT31;31051;51.540;5.852;2023-11-22T23:10:32;6.6;86.1
45315;SHT31;31051;51.540;5.852;2023-11-22T23:23:31;6.5;87.9
45315;SHT31;31051;51.540;5.852;2023-11-22T23:36:30;6.5;88.9
45315;SHT31;31051;51.540;5.852;2023-11-22T23:49:30;6.6;89.1
